• 1
  • 2
  • 1

 

 

 
NEU! ab. 1.4.
Nortel Info 128,740 MHz

WebCam

  
Kamera Halle
Kamera Vorfeld
Wetter EDDS

METAR

EDDS 170050Z 20005KT CAVOK 04/M02 Q1008 =
EDDS 162300Z 1700/1724 18005KT CAVOK BECMG 1708/1711 22010KT PROB30 TEMPO 1708/1712 RA BKN014 PROB30 TEMPO 1712/1716 SHRA BKN014CB PROB30 TEMPO 1716/1721 3500 SHRASN BKN014CB


TAF

EDDS 162300Z 1700/1724 18005KT CAVOK BECMG 1708/1711 22010KT PROB30 TEMPO 1708/1712 RA BKN014 PROB30 TEMPO 1712/1716 SHRA BKN014CB PROB30 TEMPO 1716/1721 3500 SHRASN BKN014CB =


SR/SS

07:07 / 15:55 UTC
(EDSO 17-01-2019)